Flight Track Log - Related Links

Times and Time Zones

All times are in EDT time to prevent confusion due to time zone crossing. See the ASQ5874 flight status page for this flight to view local times or setup timezone preferences in your user account.


Time Position Orientation Groundspeed Altitude Reporting Facility
EDT Latitude Longitude Course Direction KTS MPH feet Rate Location/Type
Sun 07:05:39 PM 37.6231 -97.4647 231° Southwest 184 212 2,800  Level Kansas City Center
Sun 07:06:40 PM 37.6453 -97.5194 297° West 253 291 4,500 1,765 Climbing Kansas City Center
Sun 07:07:04 PM 37.6722 -97.5186 North 259 298 5,300 1,605 Climbing Kansas City Center
Sun 07:08:06 PM 37.7467 -97.4972 13° North 264 304 6,800 1,762 Climbing Kansas City Center
Sun 07:09:00 PM 37.8936 -96.9670 65° Northeast  Level Estimated
Sun 07:09:10 PM 37.8269 -97.4728 14° North 282 325 9,000  Level Kansas City Center
Sun 07:10:00 PM 37.9819 -96.9693 359° North  Level FlightAware Approximate
Sun 07:10:10 PM 37.9264 -97.4439 13° North 305 351 10,900  Level Kansas City Center
Sun 07:11:14 PM 38.0150 -97.4158 14° North 329 379 11,700 720 Climbing Kansas City Center
Sun 07:12:15 PM 38.1122 -97.3872 13° North 355 409 12,400 885 Climbing Kansas City Center
Sun 07:13:16 PM 38.2117 -97.3447 19° North 375 432 13,500 968 Climbing Kansas City Center
Sun 07:14:19 PM 38.2764 -97.2422 51° Northeast 376 433 14,400 823 Climbing Kansas City Center
Sun 07:15:20 PM 38.3303 -97.1203 61° Northeast 391 450 15,200 878 Climbing Kansas City Center
Sun 07:16:22 PM 38.3947 -96.9711 61° Northeast 400 460 16,200 857 Climbing Kansas City Center
Sun 07:17:26 PM 38.4481 -96.8444 62° Northeast 405 466 17,000 726 Climbing Kansas City Center
Sun 07:18:26 PM 38.5003 -96.7206 62° Northeast 409 471 17,700 829 Climbing Kansas City Center
Sun 07:19:29 PM 38.5606 -96.5761 62° Northeast 413 475 18,700 912 Climbing Kansas City Center
Sun 07:20:31 PM 38.6133 -96.4519 61° Northeast 415 478 19,600 1,122 Climbing Kansas City Center
Sun 07:21:32 PM 38.6736 -96.3078 62° Northeast 412 474 21,000 1,220 Climbing Kansas City Center
Sun 07:22:34 PM 38.7250 -96.1853 62° Northeast 409 471 22,100 1,143 Climbing Kansas City Center
Sun 07:23:38 PM 38.7833 -96.0433 62° Northeast 405 466 23,400 1,200 Climbing Kansas City Center
Sun 07:24:39 PM 38.8328 -95.9217 62° Northeast 402 463 24,600 1,210 Climbing Kansas City Center
Sun 07:25:42 PM 38.8911 -95.7817 62° Northeast 400 460 25,900 1,152 Climbing Kansas City Center
Sun 07:26:44 PM 38.9394 -95.6608 63° Northeast 400 460 27,000 1,171 Climbing Kansas City Center
Sun 07:27:45 PM 38.9969 -95.5217 62° Northeast 394 453 28,300 1,258 Climbing Kansas City Center
Sun 07:28:48 PM 39.0494 -95.3928 62° Northeast 399 459 29,600 1,152 Climbing Kansas City Center
Sun 07:29:50 PM 39.1000 -95.2669 63° Northeast 397 457 30,700 689 Climbing Kansas City Center
Sun 07:30:50 PM 39.1561 -95.1272 63° Northeast 412 474 31,000 148 Climbing Kansas City Center
Sun 07:31:52 PM 39.2131 -94.9875 62° Northeast 436 502 31,000  Level Kansas City Center
Sun 07:32:54 PM 39.3036 -94.8944 38° Northeast 441 507 31,000 143 Level Kansas City Center
Sun 07:33:58 PM 39.4339 -94.8358 19° North 449 517 31,300 624 Climbing Kansas City Center
Sun 07:34:59 PM 39.5439 -94.7858 19° North 441 507 32,300 1,024 Climbing Kansas City Center
Sun 07:36:01 PM 39.6667 -94.7256 21° North 424 488 33,400 1,024 Climbing Kansas City Center
Sun 07:37:02 PM 39.7683 -94.6731 22° Northeast 411 473 34,400 762 Climbing Kansas City Center
Sun 07:38:07 PM 39.8856 -94.6094 23° Northeast 409 471 35,000 290 Climbing Kansas City Center
Sun 07:39:06 PM 39.9903 -94.5525 23° Northeast 423 487 35,000  Level Kansas City Center
Sun 07:40:10 PM 40.1175 -94.4856 22° Northeast 441 507 35,000  Level Kansas City Center
Sun 07:41:10 PM 40.1925 -94.3525 54° Northeast 481 554 35,000  Level Kansas City Center
Sun 07:42:14 PM 40.1989 -94.1508 88° East 496 571 35,000  Level Kansas City Center
Sun 07:43:16 PM 40.1900 -93.9617 93° East 507 583 35,000  Level Kansas City Center
Sun 07:44:17 PM 40.1844 -93.7822 92° East 502 578 35,000  Level Kansas City Center
Sun 07:45:21 PM 40.1772 -93.6017 93° East 502 578 35,000 -672 Level Kansas City Center
Sun 07:46:22 PM 40.1700 -93.4214 93° East 502 578 33,600 -968 Descending Kansas City Center
Sun 07:47:25 PM 40.1625 -93.2464 93° East 492 566 33,000 -290 Descending Kansas City Center
Sun 07:48:26 PM 40.1544 -93.0306 93° East 499 574 33,000  Level Kansas City Center
Sun 07:49:29 PM 40.1456 -92.8442 94° East 501 577 33,000  Level Kansas City Center
Sun 07:50:31 PM 40.1358 -92.6700 94° East 502 578 33,000  Level Kansas City Center
Sun 07:51:33 PM 40.1728 -92.4744 76° East 499 574 33,000  Level Kansas City Center
Sun 07:52:33 PM 40.2344 -92.3167 63° Northeast 491 565 33,000  Level Kansas City Center
Sun 07:53:37 PM 40.2919 -92.1558 65° Northeast 495 570 33,000  Level Kansas City Center
Sun 07:54:39 PM 40.3486 -91.9972 65° Northeast 490 564 33,000 -197 Level Kansas City Center
Sun 07:55:39 PM 40.4042 -91.8389 65° Northeast 486 559 32,600 -968 Descending Kansas City Center
Sun 07:56:43 PM 40.4675 -91.6578 65° Northeast 465 535 31,000 -768 Descending Kansas City Center
Sun 07:57:44 PM 40.5194 -91.5050 66° East 463 533 31,000  Level Kansas City Center
Sun 07:58:45 PM 40.5706 -91.3494 67° East 466 536 31,000  Level Kansas City Center
Sun 07:59:48 PM 40.6325 -91.1725 65° Northeast 467 537 31,000  Level Kansas City Center
Sun 08:00:56 PM 40.6858 -91.0156 66° East 469 540 31,000  Level Chicago Center
Sun 08:01:58 PM 40.7389 -90.8583 66° East 468 539 31,000  Level Chicago Center
Sun 08:03:00 PM 40.8044 -90.6697 65° Northeast 471 542 31,000  Level Chicago Center
Sun 08:04:02 PM 40.8564 -90.5122 66° East 469 540 31,000  Level Chicago Center
Sun 08:05:05 PM 40.9089 -90.3539 66° East 468 539 31,000 -384 Level Chicago Center
Sun 08:06:07 PM 40.9600 -90.2008 66° East 464 534 30,200 -1,403 Descending Chicago Center
Sun 08:07:09 PM 41.0128 -90.0436 66° East 454 522 28,100 -1,984 Descending Chicago Center
Sun 08:08:11 PM 41.0639 -89.8869 67° East 457 526 26,100 -1,887 Descending Chicago Center
Sun 08:09:13 PM 41.1150 -89.7281 67° East 464 534 24,200 -1,355 Descending Chicago Center
Sun 08:10:15 PM 41.1631 -89.5844 66° East 423 487 23,300 -1,016 Descending Chicago Center
Sun 08:11:17 PM 41.2194 -89.4414 62° Northeast 364 419 22,100 -1,113 Descending Chicago Center
Sun 08:12:19 PM 41.2608 -89.3403 61° Northeast 318 366 21,000 -968 Descending Chicago Center
Sun 08:13:21 PM 41.2992 -89.2444 62° Northeast 298 343 20,100 -968 Descending Chicago Center
Sun 08:14:23 PM 41.3411 -89.1375 62° Northeast 298 343 19,000 -1,016 Descending Chicago Center
Sun 08:15:25 PM 41.3789 -89.0417 62° Northeast 295 339 18,000 -919 Descending Chicago Center
Sun 08:16:27 PM 41.4167 -88.9494 61° Northeast 288 331 17,100 -912 Descending Chicago Center
Sun 08:17:30 PM 41.4528 -88.8575 62° Northeast 282 325 16,100 -912 Descending Chicago Center
Sun 08:18:32 PM 41.4886 -88.7678 62° Northeast 277 319 15,200 -968 Descending Chicago Center
Sun 08:19:34 PM 41.5211 -88.6569 69° East 287 330 14,100 -581 Descending Chicago Center
Sun 08:20:36 PM 41.4589 -88.6272 160° South 267 307 14,000 -290 Descending Chicago Center
Sun 08:21:38 PM 41.4244 -88.7042 239° Southwest 247 284 13,500 -871 Descending Chicago Center
Sun 08:22:40 PM 41.3944 -88.7853 244° Southwest 247 284 12,200 -774 Descending Chicago Center
Sun 08:23:42 PM 41.4292 -88.8436 308° West 277 319 11,900 -532 Descending Chicago Center
Sun 08:24:44 PM 41.5044 -88.7719 35° Northeast 302 348 11,100 -435 Descending Chicago Center
Sun 08:25:46 PM 41.5461 -88.6733 61° Northeast 305 351 11,000 -48 Descending Chicago Center
Sun 08:26:48 PM 41.5825 -88.5758 63° Northeast 298 343 11,000 -97 Level Chicago Center
Sun 08:27:50 PM 41.6019 -88.4817 75° East 273 314 10,800 -677 Descending Chicago Center
Sun 08:28:52 PM 41.6111 -88.3886 82° East 258 297 9,600 -1,104 Descending Chicago Center
Sun 08:29:55 PM 41.6211 -88.3017 81° East 244 281 8,500 -1,056 Descending Chicago Center
Sun 08:30:57 PM 41.6672 -88.2358 47° Northeast 205 236 7,400 -968 Descending Chicago Center
Sun 08:31:59 PM 41.7056 -88.1917 41° Northeast 189 217 6,500 -774 Descending Chicago Center
Sun 08:33:01 PM 41.7397 -88.1508 42° Northeast 171 197 5,800 -629 Descending Chicago Center
Sun 08:34:03 PM 41.7742 -88.1106 41° Northeast 166 191 5,200 -629 Descending Chicago Center
Sun 08:35:05 PM 41.8094 -88.0700 41° Northeast 166 191 4,500 -823 Descending Chicago Center
Sun 08:36:07 PM 41.8464 -88.0261 42° Northeast 171 197 3,500 -1,036 Descending Chicago Center
Sun 08:36:55 PM 41.8833 -87.9833 41° Northeast 171 197 2,600 -1,000 Descending Chicago TRACON
Sun 08:37:49 PM 41.9167 -87.9500 37° Northeast 152 175 1,800 -778 Descending Chicago TRACON
Sun 08:38:43 PM 41.9333 -87.9167 56° Northeast 133 153 1,200 -667 Descending Chicago TRACON

Login

Don't have an account? Register now (free) for customized features, flight alerts, and more!